Time;durP1;ratioP1;P1;durP2;ratioP2;P2;SDS_P1;SDS_P2;PMS_P1;PMS_P2;Temp;Humidity;BMP_temperature;BMP_pressure;BME280_temperature;BME280_humidity;BME280_pressure;Samples;Min_cycle;Max_cycle;Signal;HPM_P1;HPM_P2
2024/04/04 00:00:42;;;;;;;5.30;1.42;;;11.10;99.90;;;14.75;90.22;99851.72;4917209;29;20555;-77
2024/04/04 00:03:08;;;;;;;4.20;1.20;;;11.20;99.90;;;14.76;86.73;99848.69;4916395;29;20032;-78
2024/04/04 00:05:34;;;;;;;3.85;1.13;;;11.20;99.90;;;14.73;85.96;99851.16;4916992;29;20131;-77
2024/04/04 00:07:59;;;;;;;3.35;1.10;;;11.30;99.90;;;14.83;84.99;99853.94;4915206;29;20040;-76
2024/04/04 00:10:25;;;;;;;5.22;1.20;;;11.30;99.90;;;14.88;83.30;99844.94;4911357;29;20067;-77
2024/04/04 00:12:52;;;;;;;4.28;1.10;;;11.30;99.90;;;14.89;82.83;99849.31;4915416;29;20044;-77
2024/04/04 00:15:18;;;;;;;3.80;0.95;;;11.30;99.90;;;14.86;82.20;99847.09;4917012;29;20392;-77
2024/04/04 00:17:46;;;;;;;4.03;1.13;;;11.30;99.90;;;14.75;81.97;99844.28;4919440;29;20028;-77
2024/04/04 00:20:16;;;;;;;4.30;1.23;;;11.30;99.90;;;14.71;79.86;99845.91;4899623;29;20059;-76
2024/04/04 00:22:42;;;;;;;5.47;1.48;;;11.30;99.90;;;14.95;79.05;99856.50;4913036;29;20036;-77
2024/04/04 00:25:08;;;;;;;4.35;1.02;;;11.40;99.90;;;14.76;79.89;99848.69;4914282;29;20036;-77
2024/04/04 00:27:34;;;;;;;2.53;1.10;;;11.40;99.90;;;14.98;79.17;99852.38;4914316;29;20119;-77
2024/04/04 00:30:01;;;;;;;3.08;1.05;;;11.30;99.90;;;15.01;79.55;99857.34;4914193;29;20067;-78
2024/04/04 00:32:26;;;;;;;2.67;1.00;;;11.30;99.90;;;14.48;84.73;99861.63;4913223;29;20044;-77
2024/04/04 00:34:52;;;;;;;3.50;1.38;;;11.30;99.90;;;14.83;86.17;99867.69;4915350;29;20040;-79
2024/04/04 00:37:18;;;;;;;3.72;1.33;;;11.30;99.90;;;14.42;89.53;99859.94;4917348;29;20040;-78
2024/04/04 00:39:44;;;;;;;4.20;1.60;;;11.30;99.90;;;14.69;90.49;99867.28;4917603;29;20098;-78
2024/04/04 00:42:09;;;;;;;6.90;1.58;;;11.20;99.90;;;14.39;94.23;99871.44;4915935;29;20044;-78
2024/04/04 00:44:35;;;;;;;2.58;1.30;;;11.20;99.90;;;14.32;93.17;99854.34;4916529;29;20051;-77
2024/04/04 00:47:01;;;;;;;3.65;1.35;;;11.20;99.90;;;14.41;93.85;99872.00;4912380;29;20035;-76
2024/04/04 00:49:27;;;;;;;4.22;1.30;;;11.20;99.90;;;14.37;93.79;99866.19;4916978;29;20139;-77
2024/04/04 00:51:53;;;;;;;6.05;1.45;;;11.20;99.90;;;14.44;93.70;99863.25;4916423;29;20506;-77
2024/04/04 00:54:19;;;;;;;5.63;1.50;;;11.20;99.90;;;14.41;92.00;99868.41;4917086;29;20046;-77
2024/04/04 00:56:48;;;;;;;4.72;1.65;;;11.10;99.90;;;14.46;92.88;99868.47;4901332;29;20488;-76
2024/04/04 00:59:14;;;;;;;4.20;1.38;;;11.10;99.90;;;14.42;92.25;99873.66;4918282;29;20119;-77
2024/04/04 01:01:43;;;;;;;6.82;1.48;;;11.10;99.90;;;14.61;91.42;99862.28;4916918;29;20051;-77
2024/04/04 01:04:12;;;;;;;7.43;2.15;;;11.10;99.90;;;14.46;91.23;99873.97;4917334;29;20044;-78
2024/04/04 01:06:48;;;;;;;7.53;1.67;;;11.00;99.90;;;14.62;89.93;99861.19;4916944;29;20517;-77
2024/04/04 01:09:16;;;;;;;5.28;1.52;;;11.10;99.90;;;14.50;88.54;99867.69;4917827;29;20095;-78
2024/04/04 01:11:42;;;;;;;;;;;11.10;99.90;;;14.38;89.39;99861.56;4916820;29;20036;-77
2024/04/04 01:14:08;;;;;;;7.95;1.63;;;11.10;99.90;;;14.14;89.68;99856.41;4916575;29;19919;-77
2024/04/04 01:16:34;;;;;;;6.07;1.40;;;11.10;99.90;;;14.01;89.40;99854.06;4915593;29;20036;-78
2024/04/04 01:19:00;;;;;;;4.68;1.38;;;11.10;99.90;;;14.59;89.43;99869.94;4915268;29;20500;-78
2024/04/04 01:21:26;;;;;;;3.47;1.50;;;11.10;99.90;;;14.23;88.41;99856.75;4916001;29;20503;-78
2024/04/04 01:23:52;;;;;;;5.90;1.90;;;11.10;99.90;;;14.14;88.00;99839.94;4914920;29;20044;-79
2024/04/04 01:26:18;;;;;;;3.63;1.60;;;11.20;99.90;;;14.39;88.26;99866.75;4916440;29;20033;-78
2024/04/04 01:28:46;;;;;;;4.55;1.48;;;11.10;99.90;;;14.23;87.43;99851.28;4933926;29;20048;-78
2024/04/04 01:31:12;;;;;;;4.55;1.60;;;11.10;99.90;;;14.43;86.94;99866.22;4916655;29;20032;-78
2024/04/04 01:33:38;;;;;;;6.75;1.90;;;11.00;99.90;;;14.55;85.78;99861.41;4916851;29;20411;-78
2024/04/04 01:36:04;;;;;;;4.57;1.52;;;11.00;99.90;;;14.45;86.36;99853.91;4916822;29;20047;-77
2024/04/04 01:38:29;;;;;;;6.18;1.50;;;10.90;99.90;;;14.45;86.81;99870.38;4915030;29;20373;-77
2024/04/04 01:40:55;;;;;;;3.38;1.40;;;10.90;99.90;;;14.26;87.63;99858.13;4909800;29;20047;-77
2024/04/04 01:43:21;;;;;;;6.35;1.80;;;10.90;99.90;;;14.39;86.88;99868.69;4916156;29;20051;-76
2024/04/04 01:45:47;;;;;;;5.57;1.90;;;10.90;99.90;;;14.08;86.80;99866.50;4904104;29;20044;-77
2024/04/04 01:48:13;;;;;;;2.55;1.48;;;10.90;99.90;;;14.28;86.50;99869.66;4915825;29;20040;-78
2024/04/04 01:50:38;;;;;;;5.63;1.80;;;10.80;99.90;;;14.28;85.31;99869.66;4915842;29;20044;-77
2024/04/04 01:53:04;;;;;;;4.43;1.58;;;10.80;99.90;;;13.85;86.88;99867.63;4915116;29;20485;-76
2024/04/04 01:55:30;;;;;;;4.88;1.38;;;10.70;99.90;;;13.99;87.19;99861.72;4915664;29;20040;-77
2024/04/04 01:57:57;;;;;;;6.05;1.50;;;10.60;99.90;;;13.77;85.98;99876.28;4916457;29;20040;-77
2024/04/04 02:00:23;;;;;;;3.95;1.48;;;10.60;99.90;;;13.97;86.64;99869.38;4915900;29;20439;-78
2024/04/04 02:02:49;;;;;;;5.80;1.40;;;10.50;99.90;;;14.00;86.12;99863.38;4915677;29;20456;-77
2024/04/04 02:05:14;;;;;;;4.30;1.13;;;10.40;99.90;;;13.68;87.67;99877.84;4915725;29;20040;-78
2024/04/04 02:07:41;;;;;;;4.45;1.15;;;10.30;99.90;;;13.72;85.18;99862.53;4912831;29;20047;-78
2024/04/04 02:10:08;;;;;;;;;;;10.30;99.90;;;13.70;84.75;99871.03;4916233;29;20044;-78
2024/04/04 02:12:34;;;;;;;5.68;1.30;;;10.30;99.90;;;13.66;84.72;99881.66;4916162;29;20272;-78
2024/04/04 02:15:00;;;;;;;5.40;1.40;;;10.20;99.90;;;13.67;85.08;99885.25;4916103;29;20059;-78
2024/04/04 02:17:25;;;;;;;4.07;1.40;;;10.20;99.90;;;13.48;85.14;99882.00;4915921;29;20485;-78
2024/04/04 02:19:51;;;;;;;4.97;1.42;;;10.20;99.90;;;13.61;85.38;99878.88;4914115;29;20073;-78
2024/04/04 02:22:17;;;;;;;7.68;1.60;;;10.20;99.90;;;13.35;85.87;99874.94;4915258;29;20059;-77
2024/04/04 02:24:43;;;;;;;3.80;1.40;;;10.20;99.90;;;13.65;85.29;99879.16;4915364;29;20048;-78
2024/04/04 02:27:09;;;;;;;5.18;1.10;;;10.30;99.90;;;13.63;85.36;99881.34;4915450;29;20050;-78
2024/04/04 02:29:35;;;;;;;5.50;1.45;;;10.30;99.90;;;13.73;83.46;99880.63;4915104;29;20043;-78
2024/04/04 02:32:01;;;;;;;4.63;1.63;;;10.40;99.90;;;13.68;84.02;99877.84;4915627;29;20036;-77
2024/04/04 02:34:27;;;;;;;6.00;1.17;;;10.30;99.90;;;13.67;83.95;99874.28;4898565;29;20054;-77
2024/04/04 02:36:52;;;;;;;4.38;1.27;;;10.40;99.90;;;13.63;83.41;99859.41;4915232;29;20032;-79
2024/04/04 02:39:19;;;;;;;7.30;1.42;;;10.40;99.90;;;13.83;83.76;99869.81;4916252;29;20055;-78
2024/04/04 02:41:45;;;;;;;4.88;1.55;;;10.40;99.90;;;13.93;81.76;99861.69;4914074;29;20474;-78
2024/04/04 02:44:10;;;;;;;6.65;1.30;;;10.30;99.90;;;13.87;81.53;99850.91;4915307;29;20046;-78
2024/04/04 02:46:37;;;;;;;5.13;1.30;;;10.30;99.90;;;13.90;81.04;99853.13;4929885;29;20736;-78
2024/04/04 02:49:03;;;;;;;4.05;1.17;;;10.30;99.90;;;13.72;81.54;99857.06;4915249;29;20215;-78
2024/04/04 02:51:32;;;;;;;6.47;1.55;;;10.40;99.90;;;13.75;81.15;99859.28;4915468;29;20042;-78
2024/04/04 02:53:59;;;;;;;6.88;1.30;;;10.40;99.90;;;13.92;81.26;99862.75;4915214;29;20102;-78
2024/04/04 02:56:24;;;;;;;7.30;1.10;;;10.40;99.90;;;13.79;81.76;99864.00;4915586;29;20040;-78
2024/04/04 02:58:50;;;;;;;5.88;1.05;;;10.40;99.90;;;13.75;81.38;99851.91;4916485;29;20040;-78
2024/04/04 03:01:16;;;;;;;7.60;2.08;;;10.30;99.90;;;13.54;81.77;99844.53;4916710;29;20047;-78
2024/04/04 03:03:44;;;;;;;6.18;1.10;;;10.30;99.90;;;13.69;81.49;99852.09;4918736;29;20044;-78
2024/04/04 03:06:11;;;;;;;5.45;1.15;;;10.20;99.90;;;13.57;81.99;99850.34;4927547;29;20056;-78
2024/04/04 03:08:37;;;;;;;6.63;1.23;;;10.20;99.90;;;13.23;84.00;99844.94;4924393;29;20071;-78
2024/04/04 03:11:04;;;;;;;7.15;2.00;;;10.10;99.90;;;13.24;83.62;99841.13;4919995;29;20032;-78
2024/04/04 03:13:30;;;;;;;4.65;1.15;;;10.00;99.90;;;13.23;85.50;99850.41;4924247;29;20066;-78
2024/04/04 03:15:58;;;;;;;5.95;0.95;;;9.90;99.90;;;13.26;83.87;99849.94;4916180;29;20155;-77
2024/04/04 03:18:24;;;;;;;3.75;1.10;;;9.90;99.90;;;13.59;83.37;99853.66;4915736;29;20032;-78
2024/04/04 03:20:50;;;;;;;5.57;1.15;;;9.80;99.90;;;13.48;83.39;99849.94;4911226;29;20037;-78
2024/04/04 03:23:16;;;;;;;7.30;1.25;;;9.70;99.90;;;13.55;83.34;99860.72;4921711;29;20044;-77
2024/04/04 03:25:42;;;;;;;4.05;0.93;;;9.70;99.90;;;13.38;83.15;99847.88;4914887;29;20037;-78
2024/04/04 03:28:08;;;;;;;5.35;1.08;;;9.60;99.90;;;13.32;84.54;99865.34;4914875;29;20100;-78
2024/04/04 03:30:33;;;;;;;3.15;0.90;;;9.60;99.90;;;13.39;82.88;99856.91;4914602;29;20051;-78
2024/04/04 03:32:59;;;;;;;5.68;0.90;;;9.60;99.90;;;13.19;83.08;99854.75;4908993;29;20032;-78
2024/04/04 03:35:28;;;;;;;7.82;1.00;;;9.50;99.90;;;13.16;83.78;99849.78;4914098;29;20488;-79
2024/04/04 03:37:54;;;;;;;4.15;0.90;;;9.50;99.90;;;13.15;83.38;99851.72;4914541;29;20052;-78
2024/04/04 03:40:20;;;;;;;7.35;1.13;;;9.50;99.90;;;13.15;83.70;99845.38;4910306;29;20032;-78
2024/04/04 03:42:46;;;;;;;5.95;0.82;;;9.50;99.90;;;12.94;84.96;99842.38;4912360;29;20051;-78
2024/04/04 03:45:14;;;;;;;5.50;1.00;;;9.40;99.90;;;13.11;84.04;99846.97;4912085;29;20559;-78
2024/04/04 03:47:40;;;;;;;4.85;0.93;;;9.30;99.90;;;12.86;84.75;99840.06;4912677;29;20168;-77
2024/04/04 03:50:06;;;;;;;7.05;1.33;;;9.40;99.90;;;13.12;83.40;99826.72;4913813;29;20083;-77
2024/04/04 03:52:33;;;;;;;7.07;1.00;;;9.40;99.90;;;12.99;84.83;99839.69;4914176;29;20052;-77
2024/04/04 03:55:00;;;;;;;4.93;0.80;;;9.30;99.90;;;12.91;83.69;99838.25;4897149;29;20040;-77
2024/04/04 03:57:26;;;;;;;5.70;1.10;;;9.30;99.90;;;12.90;84.76;99841.22;4913523;29;20040;-77
2024/04/04 03:59:53;;;;;;;7.65;1.17;;;9.40;99.90;;;12.63;83.69;99837.28;4912289;29;20036;-76
2024/04/04 04:02:19;;;;;;;6.10;0.90;;;9.40;99.90;;;13.07;83.34;99832.97;4914101;29;20512;-77
2024/04/04 04:04:44;;;;;;;4.35;1.08;;;9.40;99.90;;;13.17;81.67;99829.53;4914250;29;20040;-77
2024/04/04 04:07:11;;;;;;;3.92;0.80;;;9.30;99.90;;;13.09;82.11;99831.63;4912774;29;20047;-78
2024/04/04 04:09:37;;;;;;;5.18;0.95;;;9.30;99.90;;;13.04;82.79;99826.09;4915684;29;20051;-77
2024/04/04 04:12:03;;;;;;;5.28;0.73;;;9.30;99.90;;;12.92;82.79;99837.16;4918147;29;20032;-78
2024/04/04 04:14:28;;;;;;;6.55;0.98;;;9.20;99.90;;;12.69;84.15;99831.88;4917653;29;20503;-76
2024/04/04 04:16:54;;;;;;;5.38;1.13;;;9.20;99.90;;;12.64;85.42;99838.09;4917726;29;20067;-77
2024/04/04 04:19:20;;;;;;;5.43;1.10;;;9.20;99.90;;;12.51;86.51;99834.66;4917816;29;20048;-77
2024/04/04 04:21:46;;;;;;;4.85;1.17;;;9.30;99.90;;;12.68;86.04;99835.72;4916297;29;20032;-78
2024/04/04 04:24:12;;;;;;;7.63;0.90;;;9.20;99.90;;;12.63;85.30;99834.56;4917255;29;20473;-76
2024/04/04 04:26:37;;;;;;;7.50;1.20;;;9.20;99.90;;;12.85;83.46;99841.97;4922387;29;20091;-76
2024/04/04 04:29:04;;;;;;;4.70;0.90;;;9.10;99.90;;;12.85;82.57;99809.13;4917353;29;20392;-76
2024/04/04 04:31:33;;;;;;;4.43;1.02;;;9.10;99.90;;;12.77;83.20;99820.50;4915259;29;20377;-77
2024/04/04 04:34:01;;;;;;;4.75;1.02;;;9.10;99.90;;;12.57;84.93;99838.28;4917572;29;20528;-79
2024/04/04 04:36:32;;;;;;;4.22;1.30;;;9.10;99.90;;;12.49;84.41;99838.69;4917071;29;20070;-77
2024/04/04 04:38:58;;;;;;;6.78;1.23;;;9.10;99.90;;;12.62;84.42;99821.09;4917265;29;20047;-77
2024/04/04 04:41:24;;;;;;;4.10;1.13;;;9.10;99.90;;;12.85;81.82;99824.72;4915618;29;20059;-77
2024/04/04 04:43:50;;;;;;;13.43;2.47;;;9.10;99.90;;;12.84;82.57;99829.34;4917440;29;20040;-79
2024/04/04 04:46:18;;;;;;;12.52;2.00;;;9.10;99.90;;;12.94;81.05;99804.03;4917682;29;20040;-76
2024/04/04 04:48:45;;;;;;;8.45;1.35;;;9.00;99.90;;;12.94;81.05;99820.47;4917277;29;20158;-77
2024/04/04 04:51:11;;;;;;;7.25;1.30;;;9.00;99.90;;;12.99;82.10;99817.78;4917009;29;20054;-77
2024/04/04 04:53:38;;;;;;;6.20;1.27;;;9.00;99.90;;;12.84;81.72;99814.84;4916520;29;20036;-75
2024/04/04 04:56:05;;;;;;;5.22;0.98;;;;;;;12.61;83.90;99825.78;4910751;29;20037;-76
2024/04/04 04:58:32;;;;;;;6.75;0.93;;;;;;;12.52;84.60;99822.63;4899484;29;20504;-77
2024/04/04 05:00:58;;;;;;;6.35;1.42;;;;;;;12.26;86.34;99826.03;4916847;29;20087;-77
2024/04/04 05:03:25;;;;;;;6.28;1.42;;;;;;;12.50;85.30;99813.84;4916397;29;20072;-77
2024/04/04 05:05:52;;;;;;;4.40;1.47;;;;;;;12.50;85.89;99819.31;4915875;29;20060;-78
2024/04/04 05:08:19;;;;;;;7.07;0.98;;;;;;;12.15;89.79;99831.31;4913966;29;20043;-77
2024/04/04 05:10:46;;;;;;;4.97;0.90;;;;;;;11.96;92.24;99824.41;4917046;29;20039;-77
2024/04/04 05:13:12;;;;;;;6.78;1.35;;;;;;;12.25;93.74;99824.38;4913925;29;20035;-78
2024/04/04 05:15:47;;;;;;;6.95;1.20;;;;;;;12.26;92.59;99815.09;4909796;29;20051;-77
2024/04/04 05:18:13;;;;;;;7.22;1.00;;;8.90;99.90;;;12.21;90.51;99813.94;4928426;29;20059;-77
2024/04/04 05:20:42;;;;;;;6.65;1.17;;;8.90;99.90;;;12.36;89.70;99810.63;4912008;29;20067;-78
2024/04/04 05:23:07;;;;;;;6.85;1.00;;;9.10;99.90;;;12.69;87.30;99816.28;4912130;29;20040;-76
2024/04/04 05:25:33;;;;;;;2.90;0.80;;;9.20;99.90;;;12.85;85.19;99809.13;4912910;29;20455;-79
2024/04/04 05:27:59;;;;;;;4.60;1.13;;;9.40;99.90;;;12.84;83.95;99803.91;4917099;29;20043;-77
2024/04/04 05:30:26;;;;;;;7.72;1.17;;;9.60;99.90;;;13.13;82.48;99790.88;4915067;29;20036;-78
2024/04/04 05:32:53;;;;;;;6.53;1.23;;;9.80;99.90;;;13.35;79.30;99785.38;4916138;29;20114;-77
2024/04/04 05:35:19;;;;;;;6.38;0.85;;;;;;;13.18;80.71;99801.06;4916185;29;20043;-78
2024/04/04 05:37:45;;;;;;;4.78;1.20;;;;;;;13.38;78.81;99795.84;4915946;29;20196;-78
2024/04/04 05:40:11;;;;;;;7.38;1.25;;;;;;;13.32;77.89;99810.56;4915900;29;20062;-80
2024/04/04 05:42:38;;;;;;;6.00;0.82;;;;;;;13.77;76.14;99805.88;4915058;29;20059;-78
2024/04/04 05:45:04;;;;;;;5.85;1.10;;;;;;;13.92;74.74;99802.44;4915659;29;20048;-77
2024/04/04 05:47:30;;;;;;;3.83;1.33;;;;;;;13.79;76.29;99808.34;4909198;29;20042;-77
2024/04/04 05:49:56;;;;;;;4.55;0.80;;;;;;;13.43;78.38;99811.53;4915851;29;20043;-77
2024/04/04 05:52:23;;;;;;;3.20;0.70;;;;;;;13.42;80.25;99815.34;4914462;29;20044;-76
2024/04/04 05:54:53;;;;;;;5.70;1.23;;;;;;;12.98;82.55;99816.13;4916170;29;20044;-78
2024/04/04 05:57:19;;;;;;;5.68;0.90;;;;;;;13.03;84.18;99810.75;4915800;29;20032;-77
2024/04/04 05:59:45;;;;;;;5.97;1.20;;;;;;;13.15;82.12;99815.25;4915909;29;20106;-78
2024/04/04 06:02:12;;;;;;;4.72;0.90;;;;;;;13.33;82.20;99806.72;4914395;29;20040;-78
2024/04/04 06:04:39;;;;;;;4.15;0.85;;;;;;;13.55;80.75;99807.81;4915615;29;20047;-78
2024/04/04 06:07:05;;;;;;;8.48;1.67;;;;;;;13.52;81.74;99793.56;4915859;29;20032;-78
2024/04/04 06:09:31;;;;;;;5.10;1.15;;;10.10;99.90;;;13.20;84.43;99786.03;4915895;29;20119;-78
2024/04/04 06:11:57;;;;;;;5.70;1.10;;;9.70;99.90;;;13.30;86.72;99793.56;4914596;29;20511;-80
2024/04/04 06:14:22;;;;;;;5.22;1.15;;;9.50;99.90;;;12.74;90.12;99789.00;4902718;29;20040;-79
2024/04/04 06:16:48;;;;;;;4.57;1.00;;;9.40;99.90;;;12.75;92.41;99785.19;4914823;29;20036;-78
2024/04/04 06:19:14;;;;;;;6.60;1.02;;;9.30;99.90;;;12.82;95.82;99789.66;4897900;29;20040;-80
2024/04/04 06:21:40;;;;;;;2.58;0.82;;;9.20;99.90;;;12.47;99.90;99806.13;4914332;29;20044;-79
2024/04/04 06:24:06;;;;;;;4.75;1.02;;;9.10;99.90;;;12.22;100.00;99787.41;4914789;29;20046;-78
2024/04/04 06:26:31;;;;;;;8.43;1.10;;;9.00;99.90;;;12.04;100.00;99791.22;4914422;29;20092;-78
2024/04/04 06:28:57;;;;;;;9.50;1.48;;;8.90;99.90;;;12.37;100.00;99795.03;4915130;29;20040;-77
2024/04/04 06:31:24;;;;;;;5.90;1.13;;;8.80;99.90;;;12.46;100.00;99782.56;4915089;29;20044;-78
2024/04/04 06:33:50;;;;;;;4.63;0.82;;;8.80;99.90;;;12.20;100.00;99784.94;4914260;29;20075;-77
2024/04/04 06:36:16;;;;;;;5.90;1.42;;;8.80;99.90;;;12.36;100.00;99785.16;4914744;29;20040;-78
2024/04/04 06:38:43;;;;;;;5.80;1.58;;;8.80;99.90;;;12.07;100.00;99766.97;4929041;29;20040;-76
2024/04/04 06:41:09;;;;;;;6.03;1.40;;;8.80;99.90;;;12.16;100.00;99781.00;4912737;29;20075;-75
2024/04/04 06:43:35;;;;;;;7.97;1.23;;;8.90;99.90;;;12.11;100.00;99763.72;4913432;29;20056;-76
2024/04/04 06:46:01;;;;;;;8.05;1.23;;;9.00;99.90;;;12.31;100.00;99780.44;4914774;29;20039;-75
2024/04/04 06:48:27;;;;;;;5.03;0.88;;;9.00;99.90;;;12.45;100.00;99775.44;4899526;29;20037;-76
2024/04/04 06:50:53;;;;;;;7.97;1.20;;;9.10;99.90;;;12.59;100.00;99764.16;4912412;29;20044;-76
2024/04/04 06:53:18;;;;;;;4.38;1.15;;;9.20;99.90;;;12.67;100.00;99758.25;4915154;29;20044;-76
2024/04/04 06:55:44;;;;;;;3.70;1.10;;;9.30;99.90;;;12.41;100.00;99757.88;4918690;29;20051;-78
2024/04/04 06:58:12;;;;;;;5.97;1.23;;;9.40;99.90;;;12.68;100.00;99746.22;4913580;29;20036;-75
2024/04/04 07:00:38;;;;;;;7.22;1.27;;;9.60;99.90;;;12.59;100.00;99754.03;4914148;29;20032;-76
2024/04/04 07:03:05;;;;;;;3.45;1.10;;;9.70;99.90;;;12.74;100.00;99750.69;4914467;29;20043;-76
2024/04/04 07:05:30;;;;;;;3.65;0.90;;;9.80;99.90;;;12.79;100.00;99747.19;4914161;29;20444;-77
2024/04/04 07:07:56;;;;;;;3.38;1.20;;;9.80;99.90;;;13.00;100.00;99748.28;4914820;29;20035;-78
2024/04/04 07:10:22;;;;;;;4.55;1.15;;;9.90;99.90;;;13.07;100.00;99746.19;4929383;29;20043;-76
2024/04/04 07:12:47;;;;;;;4.25;1.00;;;9.90;99.90;;;13.31;100.00;99745.91;4909501;29;20778;-78
2024/04/04 07:15:13;;;;;;;4.47;1.10;;;10.00;99.90;;;13.29;100.00;99744.50;4914634;29;20051;-76
2024/04/04 07:17:39;;;;;;;6.00;1.10;;;10.00;99.90;;;13.22;100.00;99742.78;4911686;29;20059;-77
2024/04/04 07:20:05;;;;;;;6.45;1.13;;;10.10;99.90;;;13.24;100.00;99734.31;4909883;29;20039;-76
2024/04/04 07:22:31;;;;;;;3.90;1.00;;;10.20;99.90;;;13.20;100.00;99744.97;4908516;29;20040;-80
2024/04/04 07:24:57;;;;;;;4.97;1.20;;;10.20;99.90;;;13.37;100.00;99742.13;4910124;29;20054;-77
2024/04/04 07:27:23;;;;;;;4.00;0.82;;;10.20;99.90;;;13.23;100.00;99733.50;4913750;29;20048;-78
2024/04/04 07:29:49;;;;;;;3.63;1.17;;;10.30;99.90;;;13.45;98.60;99738.13;4911123;29;20099;-77
2024/04/04 07:32:14;;;;;;;7.13;1.15;;;10.30;99.90;;;13.51;99.09;99726.13;4911301;29;20028;-78
2024/04/04 07:34:40;;;;;;;4.45;1.00;;;10.40;99.90;;;13.29;99.96;99723.41;4907434;29;20036;-76
2024/04/04 07:37:06;;;;;;;4.45;1.00;;;10.40;99.90;;;13.38;100.00;99732.81;4907594;29;20492;-76
2024/04/04 07:39:33;;;;;;;4.47;1.00;;;10.30;99.90;;;13.28;100.00;99732.72;4910286;29;20096;-78
2024/04/04 07:42:00;;;;;;;4.23;0.63;;;10.30;99.90;;;13.24;100.00;99724.19;4905782;29;20048;-77
2024/04/04 07:44:27;;;;;;;3.17;0.95;;;10.30;99.90;;;13.70;100.00;99717.53;4910716;29;20397;-79
2024/04/04 07:46:53;;;;;;;2.08;1.10;;;10.50;99.90;;;13.60;100.00;99723.75;4914004;29;20040;-79
2024/04/04 07:49:23;;;;;;;4.10;1.00;;;10.60;99.90;;;13.61;100.00;99700.75;4914455;29;20556;-77
2024/04/04 07:51:48;;;;;;;4.78;1.00;;;10.60;99.90;;;13.74;100.00;99704.13;4915763;29;20173;-78
2024/04/04 07:54:15;;;;;;;3.20;0.80;;;;;;;14.08;100.00;99701.94;4915183;29;20040;-77
2024/04/04 07:56:41;;;;;;;3.60;0.90;;;;;;;13.91;100.00;99701.25;4915127;29;20071;-77
2024/04/04 07:59:10;;;;;;;2.95;1.00;;;10.70;99.90;;;13.64;100.00;99704.84;4914610;29;20044;-75
2024/04/04 08:01:37;;;;;;;4.95;1.10;;;10.70;99.90;;;13.55;100.00;99696.31;4911940;29;20119;-76
2024/04/04 08:04:03;;;;;;;4.63;0.90;;;10.70;99.90;;;13.47;100.00;99694.03;4916031;29;20036;-75
2024/04/04 08:06:29;;;;;;;6.43;1.23;;;10.70;99.90;;;13.41;100.00;99665.75;4914633;29;20083;-75
2024/04/04 08:08:55;;;;;;;2.80;1.00;;;10.70;99.90;;;13.43;100.00;99687.41;4914320;29;20040;-76
2024/04/04 08:11:21;;;;;;;1.83;1.00;;;10.80;99.90;;;13.54;100.00;99678.22;4914474;29;20044;-77
2024/04/04 08:13:47;;;;;;;4.28;1.10;;;10.80;99.90;;;13.53;100.00;99673.84;4913688;29;20066;-76
2024/04/04 08:16:13;;;;;;;1.80;0.93;;;10.80;99.90;;;13.63;100.00;99664.84;4915461;29;20483;-75
2024/04/04 08:18:39;;;;;;;3.42;0.90;;;10.80;99.90;;;13.42;100.00;99661.91;4913401;29;20051;-76
2024/04/04 08:21:05;;;;;;;5.10;1.05;;;10.80;99.90;;;13.72;100.00;99654.22;4909086;29;20047;-76
2024/04/04 08:23:31;;;;;;;4.07;1.00;;;10.90;99.90;;;13.59;100.00;99628.09;4915130;29;20051;-76
2024/04/04 08:25:59;;;;;;;3.03;0.90;;;10.90;99.90;;;13.92;100.00;99654.38;4914257;29;20032;-77
2024/04/04 08:28:25;;;;;;;3.10;1.00;;;10.90;99.90;;;13.77;100.00;99640.56;4914458;29;20446;-76
2024/04/04 08:31:03;;;;;;;4.13;1.13;;;10.90;99.90;;;13.95;100.00;99642.09;4929763;29;20051;-76
2024/04/04 08:33:30;;;;;;;;;;;10.90;99.90;;;13.81;100.00;99652.69;4915193;29;20451;-76
2024/04/04 08:35:58;;;;;;;1.88;0.80;;;11.00;99.90;;;13.79;100.00;99641.97;4913731;29;20049;-75
2024/04/04 08:38:27;;;;;;;4.38;1.45;;;10.90;99.90;;;13.75;100.00;99649.06;4912831;29;20076;-78
2024/04/04 08:41:09;;;;;;;3.17;0.93;;;10.90;99.90;;;13.75;100.00;99648.22;4914442;29;20543;-76
2024/04/04 08:43:38;;;;;;;2.97;1.02;;;10.90;99.90;;;13.37;100.00;99613.38;4909714;29;20044;-76
2024/04/04 08:46:07;;;;;;;3.20;1.42;;;10.90;99.90;;;13.50;100.00;99645.03;4908836;29;20044;-76
2024/04/04 08:48:34;;;;;;;2.47;1.20;;;10.80;99.90;;;13.70;100.00;99635.31;4913982;29;20381;-77
2024/04/04 08:51:00;;;;;;;3.83;1.08;;;10.90;99.90;;;13.65;100.00;99638.84;4914714;29;20448;-76
2024/04/04 08:53:27;;;;;;;2.97;1.00;;;10.80;99.90;;;13.73;100.00;99639.44;4928299;29;20071;-78
2024/04/04 08:55:54;;;;;;;2.38;1.10;;;10.80;99.90;;;13.58;100.00;99630.03;4914236;29;20884;-77
2024/04/04 08:58:23;;;;;;;3.17;1.40;;;10.80;99.90;;;13.42;100.00;99629.03;4914218;29;20043;-77
2024/04/04 09:00:50;;;;;;;5.25;1.40;;;10.70;99.90;;;13.62;100.00;99638.53;4914320;29;20032;-78
2024/04/04 09:03:17;;;;;;;4.20;1.40;;;10.70;99.90;;;13.87;100.00;99609.66;4914352;29;20039;-76
2024/04/04 09:05:49;;;;;;;3.20;1.10;;;10.70;99.90;;;13.62;100.00;99622.09;4912794;29;20433;-76
2024/04/04 09:08:15;;;;;;;4.47;1.15;;;10.70;99.90;;;13.60;100.00;99630.59;4928666;29;20357;-76
2024/04/04 09:10:42;;;;;;;5.70;1.30;;;10.70;99.90;;;13.90;100.00;99626.41;4912321;29;20044;-78
2024/04/04 09:13:10;;;;;;;6.32;1.30;;;10.70;99.90;;;13.79;100.00;99628.25;4911926;29;20099;-78
2024/04/04 09:15:38;;;;;;;5.43;1.30;;;10.80;99.90;;;14.14;100.00;99615.03;4915414;29;20048;-77
2024/04/04 09:18:09;;;;;;;2.47;1.20;;;;;;;14.28;100.00;99617.28;4916215;29;20293;-78
2024/04/04 09:20:40;;;;;;;5.07;1.55;;;10.90;99.90;;;14.39;100.00;99617.06;4918395;29;20048;-77
2024/04/04 09:23:08;;;;;;;3.20;1.30;;;;;;;14.44;100.00;99610.78;4916271;29;20163;-76
2024/04/04 09:25:37;;;;;;;6.55;1.65;;;11.10;99.90;;;14.96;100.00;99617.28;4916992;29;20056;-77
2024/04/04 09:28:09;;;;;;;4.15;1.33;;;11.40;99.90;;;14.30;100.00;99610.47;4903787;29;20036;-77
2024/04/04 09:30:38;;;;;;;3.30;1.38;;;11.40;99.90;;;14.76;100.00;99615.31;4917050;29;20055;-78
2024/04/04 09:33:06;;;;;;;3.78;1.20;;;11.40;99.90;;;14.98;100.00;99603.28;4916528;29;20040;-77
2024/04/04 09:35:33;;;;;;;3.50;1.33;;;11.60;99.90;;;15.07;100.00;99595.34;4915132;29;20377;-78
2024/04/04 09:38:01;;;;;;;5.05;1.27;;;11.70;99.90;;;15.06;100.00;99582.72;4914531;29;20448;-78
2024/04/04 09:40:27;;;;;;;5.82;1.30;;;11.80;99.90;;;15.29;100.00;99592.34;4911065;29;20055;-78
2024/04/04 09:42:54;;;;;;;4.28;1.27;;;;;;;15.51;100.00;99594.81;4918484;29;20051;-77
2024/04/04 09:45:20;;;;;;;2.55;1.27;;;12.10;99.90;;;15.51;100.00;99583.81;4942060;29;20134;-78
2024/04/04 09:47:48;;;;;;;3.30;1.30;;;12.20;99.90;;;15.58;100.00;99589.03;4915995;29;20044;-76
2024/04/04 09:50:17;;;;;;;3.15;1.40;;;12.30;99.90;;;15.53;100.00;99583.53;4922533;29;20032;-77
2024/04/04 09:52:43;;;;;;;2.88;1.15;;;12.50;99.90;;;15.86;100.00;99573.03;4924827;29;20035;-78
2024/04/04 09:55:13;;;;;;;5.70;1.10;;;12.60;99.90;;;16.19;100.00;99578.22;4925892;29;20099;-78
2024/04/04 09:57:40;;;;;;;4.28;1.02;;;12.80;99.90;;;16.29;100.00;99566.34;4921569;29;20492;-76
2024/04/04 10:00:14;;;;;;;3.70;1.10;;;;;;;16.73;100.00;99579.38;4906106;29;20048;-77
2024/04/04 10:02:48;;;;;;;2.13;0.90;;;13.00;99.90;;;16.30;100.00;99565.25;4919648;29;20067;-76
2024/04/04 10:05:33;;;;;;;3.40;0.95;;;;;;;16.23;100.00;99565.53;4901672;29;20156;-77
2024/04/04 10:08:11;;;;;;;4.55;1.15;;;;;;;16.08;100.00;99561.75;4901227;29;20048;-76
2024/04/04 10:10:39;;;;;;;4.20;1.00;;;13.20;99.90;;;16.14;100.00;99528.72;4910856;29;20047;-76
2024/04/04 10:13:06;;;;;;;;;;;13.20;99.90;;;16.47;100.00;99556.63;4904942;29;20079;-75
2024/04/04 10:15:50;;;;;;;22.80;7.53;;;13.20;99.90;;;16.41;100.00;99544.81;4907191;29;19919;-75
2024/04/04 10:18:19;;;;;;;8.93;2.47;;;13.20;99.90;;;16.84;100.00;99563.56;4907730;29;20046;-76
2024/04/04 10:20:53;;;;;;;10.45;3.40;;;13.30;99.90;;;16.79;100.00;99545.16;4917806;29;20040;-77
2024/04/04 10:23:25;;;;;;;3.17;1.15;;;13.30;99.90;;;16.58;100.00;99543.63;4917763;29;20036;-76
2024/04/04 10:25:51;;;;;;;2.92;1.00;;;13.20;99.90;;;16.14;100.00;99547.97;4911248;29;20480;-76